createdAt,value
2022-08-24T00:00:19.790Z,60.32
2022-08-24T00:01:19.835Z,61.02
2022-08-24T00:02:19.947Z,60.82
2022-08-24T00:03:19.883Z,60.92
2022-08-24T00:04:19.726Z,60.92
2022-08-24T00:05:19.727Z,60.62
2022-08-24T00:06:19.995Z,60.42
2022-08-24T00:07:27.266Z,60.72
2022-08-24T00:08:20.728Z,61.32
2022-08-24T00:09:19.682Z,60.92
2022-08-24T00:10:19.660Z,60.82
2022-08-24T00:11:19.705Z,60.82
2022-08-24T00:12:19.642Z,61.32
2022-08-24T00:13:19.626Z,61.25
2022-08-24T00:14:19.626Z,61.35
2022-08-24T00:15:19.602Z,61.45
2022-08-24T00:16:19.727Z,61.65
2022-08-24T00:17:19.596Z,61.55
2022-08-24T00:18:19.559Z,61.65
2022-08-24T00:19:19.567Z,61.88
2022-08-24T00:20:19.559Z,61.98
2022-08-24T00:21:19.559Z,62.05
2022-08-24T00:22:19.511Z,61.85
2022-08-24T00:23:19.540Z,61.75
2022-08-24T00:24:19.729Z,61.45
2022-08-24T00:25:19.537Z,61.85
2022-08-24T00:26:28.857Z,61.85
2022-08-24T00:27:20.447Z,61.95
2022-08-24T00:28:19.457Z,61.75
2022-08-24T00:29:19.667Z,61.95
2022-08-24T00:30:19.410Z,61.98
2022-08-24T00:31:19.510Z,62.18
2022-08-24T00:32:19.688Z,62.38
2022-08-24T00:33:19.359Z,62.38
2022-08-24T00:34:19.362Z,62.28
2022-08-24T00:35:19.339Z,62.28
2022-08-24T00:36:19.366Z,62.58
2022-08-24T00:37:19.294Z,62.58
2022-08-24T00:38:19.293Z,62.68
2022-08-24T00:39:19.274Z,62.58
2022-08-24T00:40:19.341Z,62.48
2022-08-24T00:41:19.240Z,62.48
2022-08-24T00:42:19.241Z,62.08
2022-08-24T00:43:19.213Z,62.08
2022-08-24T00:44:19.205Z,62.18
2022-08-24T00:45:19.197Z,62.28
2022-08-24T00:46:19.181Z,62.48
2022-08-24T00:47:19.185Z,62.68
2022-08-24T00:48:19.246Z,62.48
2022-08-24T00:49:19.152Z,62.48
2022-08-24T00:50:19.132Z,62.58
2022-08-24T00:51:19.136Z,62.58
2022-08-24T00:52:19.117Z,62.88
2022-08-24T00:53:19.127Z,62.78
2022-08-24T00:54:19.077Z,62.68
2022-08-24T00:55:19.387Z,62.78
2022-08-24T00:56:19.045Z,62.88
2022-08-24T00:57:19.040Z,62.78
2022-08-24T00:58:19.031Z,62.78
2022-08-24T00:59:19.017Z,62.78
2022-08-24T01:00:19.355Z,63.01
2022-08-24T01:01:19.023Z,63.21
2022-08-24T01:02:21.881Z,63.42
2022-08-24T01:03:18.952Z,63.31
2022-08-24T01:04:18.959Z,63.51
2022-08-24T01:05:18.940Z,63.71
2022-08-24T01:06:18.936Z,63.81
2022-08-24T01:07:18.928Z,63.71
2022-08-24T01:08:18.889Z,63.81
2022-08-24T01:09:19.111Z,63.81
2022-08-24T01:10:18.864Z,63.92
2022-08-24T01:11:18.867Z,64.01
2022-08-24T01:12:18.835Z,63.81
2022-08-24T01:13:19.117Z,64.12
2022-08-24T01:14:18.816Z,64.12
2022-08-24T01:15:18.827Z,64.12
2022-08-24T01:16:18.870Z,64.22
2022-08-24T01:17:18.783Z,64.01
2022-08-24T01:18:18.786Z,64.01
2022-08-24T01:19:18.748Z,64.34
2022-08-24T01:20:18.763Z,64.54
2022-08-24T01:21:18.747Z,64.65
2022-08-24T01:22:18.726Z,64.84
2022-08-24T01:23:18.688Z,64.65
2022-08-24T01:24:18.679Z,64.84
2022-08-24T01:25:18.671Z,65.05
2022-08-24T01:26:18.670Z,64.95
2022-08-24T01:27:20.970Z,64.84
2022-08-24T01:28:20.782Z,65.25
2022-08-24T01:29:19.648Z,65.25
2022-08-24T01:30:18.607Z,65.05
2022-08-24T01:31:18.671Z,65.25
2022-08-24T01:32:18.597Z,65.15
2022-08-24T01:33:18.554Z,65.05
2022-08-24T01:34:18.541Z,65.35
2022-08-24T01:35:18.785Z,65.55
2022-08-24T01:36:18.560Z,65.68
2022-08-24T01:37:18.542Z,65.78
2022-08-24T01:38:18.559Z,65.88
2022-08-24T01:39:18.506Z,66.18
2022-08-24T01:40:18.578Z,66.38
2022-08-24T01:41:18.445Z,66.68
2022-08-24T01:42:18.454Z,66.48
2022-08-24T01:43:18.410Z,66.38
2022-08-24T01:44:18.459Z,66.28
2022-08-24T01:45:18.685Z,66.18
2022-08-24T01:46:18.434Z,66.28
2022-08-24T01:47:18.441Z,66.28
2022-08-24T01:48:19.961Z,66.18
2022-08-24T01:49:18.347Z,66.28
2022-08-24T01:50:18.704Z,66.28
2022-08-24T01:51:18.332Z,66.28
2022-08-24T01:52:18.368Z,66.48
2022-08-24T01:53:18.569Z,66.88
2022-08-24T01:54:18.284Z,67.08
2022-08-24T01:55:19.194Z,67.29
2022-08-24T01:56:18.254Z,66.99
2022-08-24T01:57:18.241Z,67.32
2022-08-24T01:58:18.253Z,67.32
2022-08-24T01:59:18.222Z,67.52
2022-08-24T02:00:18.204Z,67.42
2022-08-24T02:01:18.194Z,67.61
2022-08-24T02:02:18.465Z,67.61
2022-08-24T02:03:18.224Z,67.61
2022-08-24T02:04:18.943Z,67.92
2022-08-24T02:05:18.148Z,67.72
2022-08-24T02:06:18.127Z,68.02
2022-08-24T02:07:18.176Z,68.42
2022-08-24T02:08:18.103Z,68.42
2022-08-24T02:09:18.077Z,68.22
2022-08-24T02:10:18.082Z,68.22
2022-08-24T02:11:18.065Z,68.22
2022-08-24T02:12:18.141Z,68.42
2022-08-24T02:13:18.024Z,68.72
2022-08-24T02:14:18.018Z,68.52
2022-08-24T02:15:17.996Z,68.32
2022-08-24T02:16:18.050Z,68.42
2022-08-24T02:17:18.013Z,68.42
2022-08-24T02:18:17.963Z,68.72
2022-08-24T02:19:18.258Z,69.06
2022-08-24T02:20:17.966Z,69.15
2022-08-24T02:21:17.919Z,69.15
2022-08-24T02:22:17.933Z,69.35
2022-08-24T02:23:17.953Z,69.02
2022-08-24T02:24:17.899Z,69.32
2022-08-24T02:25:17.881Z,69.15
2022-08-24T02:26:17.878Z,69.46
2022-08-24T02:27:17.863Z,69.66
2022-08-24T02:28:17.881Z,69.85
2022-08-24T02:29:17.845Z,69.56
2022-08-24T02:30:17.839Z,69.46
2022-08-24T02:31:17.848Z,69.56
2022-08-24T02:32:17.785Z,69.56
2022-08-24T02:33:17.823Z,69.66
2022-08-24T02:34:17.789Z,69.85
2022-08-24T02:35:17.758Z,69.85
2022-08-24T02:36:25.598Z,69.96
2022-08-24T02:37:18.748Z,70.16
2022-08-24T02:38:17.726Z,70.36
2022-08-24T02:39:17.974Z,70.46
2022-08-24T02:40:17.788Z,70.36
2022-08-24T02:41:17.717Z,70.56
2022-08-24T02:42:17.651Z,70.56
2022-08-24T02:43:17.642Z,70.56
2022-08-24T02:44:17.674Z,70.56
2022-08-24T02:45:17.654Z,70.66
2022-08-24T02:46:17.636Z,70.66
2022-08-24T02:47:17.648Z,70.56
2022-08-24T02:48:17.575Z,70.66
2022-08-24T02:49:17.556Z,70.66
2022-08-24T02:50:17.542Z,70.89
2022-08-24T02:51:17.577Z,71.20
2022-08-24T02:52:17.521Z,71.53
2022-08-24T02:53:17.520Z,71.94
2022-08-24T02:54:17.497Z,72.24
2022-08-24T02:55:20.211Z,72.33
2022-08-24T02:56:17.546Z,72.24
2022-08-24T02:57:17.448Z,72.33
2022-08-24T02:58:17.447Z,72.44
2022-08-24T02:59:17.459Z,72.44
2022-08-24T03:00:17.438Z,72.33
2022-08-24T03:01:17.713Z,72.24
2022-08-24T03:02:30.088Z,72.53
2022-08-24T03:03:17.453Z,72.64
2022-08-24T03:04:17.362Z,72.44
2022-08-24T03:05:17.434Z,72.44
2022-08-24T03:06:17.337Z,72.74
2022-08-24T03:07:17.323Z,72.74
2022-08-24T03:08:17.330Z,72.84
2022-08-24T03:09:17.319Z,72.94
2022-08-24T03:10:17.283Z,73.14
2022-08-24T03:11:17.327Z,72.94
2022-08-24T03:12:17.250Z,73.04
2022-08-24T03:13:17.269Z,73.04
2022-08-24T03:14:17.250Z,72.94
2022-08-24T03:15:17.198Z,73.04
2022-08-24T03:16:17.319Z,72.84
2022-08-24T03:17:17.173Z,73.14
2022-08-24T03:18:17.192Z,73.24
2022-08-24T03:19:17.184Z,72.94
2022-08-24T03:20:17.146Z,73.04
2022-08-24T03:21:20.969Z,73.04
2022-08-24T03:22:17.125Z,73.00
2022-08-24T03:23:17.126Z,72.90
2022-08-24T03:24:17.104Z,72.94
2022-08-24T03:25:17.086Z,73.04
2022-08-24T03:26:17.060Z,73.24
2022-08-24T03:27:17.039Z,73.34
2022-08-24T03:28:17.044Z,73.44
2022-08-24T03:29:17.032Z,73.44
2022-08-24T03:30:17.024Z,73.24
2022-08-24T03:31:17.058Z,73.34
2022-08-24T03:32:17.024Z,73.54
2022-08-24T03:33:16.973Z,73.64
2022-08-24T03:34:17.005Z,73.64
2022-08-24T03:35:16.960Z,73.64
2022-08-24T03:36:16.940Z,73.84
2022-08-24T03:37:16.916Z,73.84
2022-08-24T03:38:16.913Z,73.84
2022-08-24T03:39:16.938Z,73.84
2022-08-24T03:40:22.784Z,73.84
2022-08-24T03:41:17.857Z,73.84
2022-08-24T03:42:16.878Z,74.18
2022-08-24T03:43:16.832Z,74.28
2022-08-24T03:44:20.140Z,74.48
2022-08-24T03:45:17.800Z,74.68
2022-08-24T03:46:16.878Z,74.88
2022-08-24T03:47:16.795Z,74.78
2022-08-24T03:48:16.802Z,74.78
2022-08-24T03:49:16.788Z,74.68
2022-08-24T03:50:16.746Z,74.98
2022-08-24T03:51:16.727Z,74.88
2022-08-24T03:52:16.753Z,74.78
2022-08-24T03:53:16.693Z,74.78
2022-08-24T03:54:16.706Z,74.88
2022-08-24T03:55:16.692Z,74.98
2022-08-24T03:56:16.716Z,75.18
2022-08-24T03:57:16.648Z,74.88
2022-08-24T03:58:16.722Z,75.02
2022-08-24T03:59:19.866Z,75.32
2022-08-24T04:00:16.723Z,75.52
2022-08-24T04:01:16.658Z,75.62
2022-08-24T04:02:16.601Z,75.72
2022-08-24T04:03:16.560Z,75.62
2022-08-24T04:04:16.602Z,75.92
2022-08-24T04:05:16.557Z,76.03
2022-08-24T04:06:16.536Z,76.12
2022-08-24T04:07:16.523Z,76.12
2022-08-24T04:08:17.805Z,76.23
2022-08-24T04:09:16.499Z,76.36
2022-08-24T04:10:16.544Z,76.46
2022-08-24T04:11:16.466Z,76.46
2022-08-24T04:12:16.460Z,76.56
2022-08-24T04:13:16.425Z,76.67
2022-08-24T04:14:23.664Z,76.67
2022-08-24T04:15:17.443Z,76.76
2022-08-24T04:16:16.470Z,77.07
2022-08-24T04:17:16.385Z,76.97
2022-08-24T04:18:16.407Z,77.40
2022-08-24T04:19:16.400Z,77.70
2022-08-24T04:20:16.341Z,77.81
2022-08-24T04:21:16.336Z,77.91
2022-08-24T04:22:16.319Z,77.91
2022-08-24T04:23:16.319Z,77.61
2022-08-24T04:24:16.552Z,77.91
2022-08-24T04:25:16.287Z,78.35
2022-08-24T04:26:16.348Z,78.21
2022-08-24T04:27:17.240Z,78.21
2022-08-24T04:28:16.238Z,78.45
2022-08-24T04:29:16.256Z,78.61
2022-08-24T04:30:16.203Z,78.51
2022-08-24T04:31:16.215Z,78.31
2022-08-24T04:32:16.208Z,78.07
2022-08-24T04:33:16.167Z,77.67
2022-08-24T04:34:20.116Z,77.47
2022-08-24T04:35:16.136Z,77.47
2022-08-24T04:36:16.149Z,77.27
2022-08-24T04:37:16.153Z,77.37
2022-08-24T04:38:16.103Z,77.47
2022-08-24T04:39:16.155Z,77.37
2022-08-24T04:40:16.099Z,77.37
2022-08-24T04:41:16.063Z,77.47
2022-08-24T04:42:17.135Z,77.77
2022-08-24T04:43:19.591Z,77.77
2022-08-24T04:44:16.025Z,78.07
2022-08-24T04:45:16.307Z,78.17
2022-08-24T04:46:16.041Z,78.07
2022-08-24T04:47:15.976Z,78.07
2022-08-24T04:48:19.776Z,78.51
2022-08-24T04:49:15.991Z,79.02
2022-08-24T04:50:15.931Z,79.42
2022-08-24T04:51:15.927Z,79.42
2022-08-24T04:52:15.933Z,79.42
2022-08-24T04:53:15.895Z,79.32
2022-08-24T04:54:15.935Z,79.02
2022-08-24T04:55:15.897Z,79.02
2022-08-24T04:56:15.860Z,79.02
2022-08-24T04:57:18.164Z,79.42
2022-08-24T04:58:15.829Z,79.72
2022-08-24T04:59:19.748Z,79.92
2022-08-24T05:00:15.809Z,79.72
2022-08-24T05:01:15.913Z,79.38
2022-08-24T05:02:16.108Z,79.08
2022-08-24T05:03:15.763Z,79.08
2022-08-24T05:04:15.817Z,79.28
2022-08-24T05:05:15.738Z,79.38
2022-08-24T05:06:15.718Z,79.18
2022-08-24T05:07:15.715Z,79.48
2022-08-24T05:08:15.674Z,79.38
2022-08-24T05:09:15.716Z,79.28
2022-08-24T05:10:15.679Z,79.38
2022-08-24T05:11:15.670Z,79.38
2022-08-24T05:12:15.630Z,79.58
2022-08-24T05:13:15.629Z,79.48
2022-08-24T05:14:15.596Z,79.58
2022-08-24T05:15:15.635Z,79.68
2022-08-24T05:16:15.672Z,79.44
2022-08-24T05:17:15.553Z,79.35
2022-08-24T05:18:16.230Z,79.14
2022-08-24T05:19:15.545Z,79.24
2022-08-24T05:20:15.531Z,79.44
2022-08-24T05:21:15.644Z,79.64
2022-08-24T05:22:15.486Z,79.74
2022-08-24T05:23:15.494Z,79.74
2022-08-24T05:24:15.467Z,79.64
2022-08-24T05:25:15.483Z,79.54
2022-08-24T05:26:15.426Z,79.44
2022-08-24T05:27:15.470Z,79.64
2022-08-24T05:28:15.399Z,79.74
2022-08-24T05:29:15.401Z,79.54
2022-08-24T05:30:15.404Z,79.24
2022-08-24T05:31:15.397Z,79.35
2022-08-24T05:32:15.375Z,79.64
2022-08-24T05:33:15.345Z,79.64
2022-08-24T05:34:15.320Z,79.74
2022-08-24T05:35:15.352Z,79.85
2022-08-24T05:36:15.288Z,80.15
2022-08-24T05:37:15.296Z,79.94
2022-08-24T05:38:15.298Z,80.15
2022-08-24T05:39:15.295Z,80.05
2022-08-24T05:40:15.310Z,80.15
2022-08-24T05:41:15.270Z,80.45
2022-08-24T05:42:15.226Z,80.45
2022-08-24T05:43:15.229Z,80.21
2022-08-24T05:44:15.190Z,80.11
2022-08-24T05:45:15.215Z,80.11
2022-08-24T05:46:15.200Z,79.71
2022-08-24T05:47:15.167Z,79.50
2022-08-24T05:48:15.139Z,79.50
2022-08-24T05:49:15.123Z,79.61
2022-08-24T05:50:15.140Z,79.81
2022-08-24T05:51:15.799Z,79.71
2022-08-24T05:52:15.113Z,79.57
2022-08-24T05:53:15.068Z,79.47
2022-08-24T05:54:15.059Z,79.37
2022-08-24T05:55:15.083Z,79.27
2022-08-24T05:56:15.044Z,79.47
2022-08-24T05:57:15.024Z,79.77
2022-08-24T05:58:22.903Z,79.67
2022-08-24T05:59:16.008Z,79.37
2022-08-24T06:00:15.024Z,79.27
2022-08-24T06:01:14.992Z,79.47
2022-08-24T06:02:15.316Z,79.37
2022-08-24T06:03:15.017Z,79.47
2022-08-24T06:04:14.925Z,79.37
2022-08-24T06:05:14.934Z,79.43
2022-08-24T06:06:14.924Z,79.03
2022-08-24T06:07:14.984Z,79.03
2022-08-24T06:08:14.873Z,79.03
2022-08-24T06:09:14.918Z,79.37
2022-08-24T06:10:35.998Z,79.43
2022-08-24T06:11:15.836Z,79.53
2022-08-24T06:12:14.866Z,79.23
2022-08-24T06:13:14.810Z,78.99
2022-08-24T06:14:14.827Z,78.89
2022-08-24T06:15:18.598Z,78.99
2022-08-24T06:16:22.392Z,79.43
2022-08-24T06:17:15.986Z,79.39
2022-08-24T06:18:14.818Z,78.89
2022-08-24T06:19:14.730Z,79.09
2022-08-24T06:20:14.734Z,78.89
2022-08-24T06:21:14.706Z,78.75
2022-08-24T06:22:14.737Z,78.49
2022-08-24T06:23:14.720Z,78.89
2022-08-24T06:24:14.686Z,78.66
2022-08-24T06:25:14.674Z,78.55
2022-08-24T06:26:17.524Z,78.25
2022-08-24T06:27:14.687Z,78.15
2022-08-24T06:28:14.612Z,78.15
2022-08-24T06:29:14.626Z,78.35
2022-08-24T06:30:14.613Z,78.35
2022-08-24T06:31:15.307Z,78.35
2022-08-24T06:32:14.608Z,78.11
2022-08-24T06:33:14.581Z,78.11
2022-08-24T06:34:14.565Z,77.81
2022-08-24T06:35:14.538Z,78.02
2022-08-24T06:36:14.523Z,78.22
2022-08-24T06:37:14.499Z,78.31
2022-08-24T06:38:14.475Z,78.22
2022-08-24T06:39:14.488Z,78.31
2022-08-24T06:40:14.526Z,78.18
2022-08-24T06:41:14.517Z,78.08
2022-08-24T06:42:14.430Z,77.58
2022-08-24T06:43:14.439Z,77.58
2022-08-24T06:44:14.522Z,77.67
2022-08-24T06:45:14.407Z,77.37
2022-08-24T06:46:14.452Z,77.37
2022-08-24T06:47:14.368Z,77.17
2022-08-24T06:48:14.344Z,77.44
2022-08-24T06:49:14.349Z,77.24
2022-08-24T06:50:14.343Z,76.84
2022-08-24T06:51:14.615Z,76.70
2022-08-24T06:52:14.659Z,76.60
2022-08-24T06:53:14.321Z,76.50
2022-08-24T06:54:14.329Z,76.60
2022-08-24T06:55:18.082Z,76.20
2022-08-24T06:56:14.488Z,76.20
2022-08-24T06:57:14.235Z,76.17
2022-08-24T06:58:14.204Z,75.67
2022-08-24T06:59:14.206Z,75.46
2022-08-24T07:00:14.230Z,75.80
2022-08-24T07:01:14.266Z,76.10
2022-08-24T07:02:14.189Z,76.20
2022-08-24T07:03:14.235Z,76.17
2022-08-24T07:04:14.133Z,76.10
2022-08-24T07:05:14.148Z,76.17
2022-08-24T07:06:14.174Z,75.96
2022-08-24T07:07:14.096Z,76.06
2022-08-24T07:08:14.078Z,76.06
2022-08-24T07:09:14.071Z,76.06
2022-08-24T07:10:14.093Z,76.26
2022-08-24T07:11:14.089Z,76.26
2022-08-24T07:12:14.067Z,75.87
2022-08-24T07:13:14.045Z,75.76
2022-08-24T07:14:14.022Z,75.63
2022-08-24T07:15:16.413Z,75.52
2022-08-24T07:16:14.046Z,75.23
2022-08-24T07:17:14.018Z,75.33
2022-08-24T07:18:13.955Z,74.93
2022-08-24T07:19:17.832Z,74.93
2022-08-24T07:20:13.941Z,75.02
2022-08-24T07:21:13.943Z,74.73
2022-08-24T07:22:13.908Z,75.02
2022-08-24T07:23:13.889Z,74.69
2022-08-24T07:24:13.884Z,74.69
2022-08-24T07:25:13.862Z,74.39
2022-08-24T07:26:21.806Z,74.49
2022-08-24T07:27:14.848Z,74.29
2022-08-24T07:28:14.011Z,74.39
2022-08-24T07:29:43.765Z,74.55
2022-08-24T07:30:27.075Z,73.96
2022-08-24T07:31:14.841Z,73.66
2022-08-24T07:32:13.772Z,73.75
2022-08-24T07:33:13.812Z,73.72
2022-08-24T07:34:13.762Z,73.02
2022-08-24T07:35:13.731Z,73.02
2022-08-24T07:36:22.012Z,72.62
2022-08-24T07:37:14.713Z,72.49
2022-08-24T07:38:14.520Z,72.62
2022-08-24T07:39:13.691Z,72.72
2022-08-24T07:40:13.714Z,72.78
2022-08-24T07:41:40.440Z,72.59
2022-08-24T07:42:19.088Z,72.49
2022-08-24T07:43:14.644Z,72.49
2022-08-24T07:44:13.599Z,72.89
2022-08-24T07:45:13.674Z,72.49
2022-08-24T07:46:13.711Z,72.35
2022-08-24T07:47:38.052Z,72.25
2022-08-24T07:48:14.579Z,71.75
2022-08-24T07:49:31.322Z,72.16
2022-08-24T07:50:14.596Z,71.86
2022-08-24T07:51:17.566Z,71.56
2022-08-24T07:52:13.506Z,71.45
2022-08-24T07:53:15.151Z,71.26
2022-08-24T07:54:13.481Z,71.06
2022-08-24T07:55:13.457Z,71.06
2022-08-24T07:56:13.459Z,71.02
2022-08-24T07:57:13.451Z,71.22
2022-08-24T07:58:13.466Z,70.53
2022-08-24T07:59:13.764Z,70.72
2022-08-24T08:00:13.450Z,70.69
2022-08-24T08:01:13.450Z,70.29
2022-08-24T08:02:13.443Z,70.29
2022-08-24T08:03:13.401Z,69.99
2022-08-24T08:04:13.348Z,69.99
2022-08-24T08:05:13.365Z,69.99
2022-08-24T08:06:16.323Z,70.06
2022-08-24T08:07:13.313Z,70.26
2022-08-24T08:08:13.295Z,69.76
2022-08-24T08:09:13.289Z,69.43
2022-08-24T08:10:13.307Z,69.73
2022-08-24T08:11:13.273Z,68.63
2022-08-24T08:12:13.228Z,68.63
2022-08-24T08:13:13.226Z,68.40
2022-08-24T08:14:13.216Z,68.00
2022-08-24T08:15:13.195Z,67.70
2022-08-24T08:16:13.290Z,68.10
2022-08-24T08:17:13.173Z,68.20
2022-08-24T08:18:13.151Z,67.90
2022-08-24T08:19:13.170Z,68.27
2022-08-24T08:20:13.127Z,67.37
2022-08-24T08:21:14.242Z,66.87
2022-08-24T08:22:13.098Z,66.97
2022-08-24T08:23:13.099Z,66.77
2022-08-24T08:24:13.224Z,66.35
2022-08-24T08:25:13.063Z,66.24
2022-08-24T08:26:13.170Z,66.08
2022-08-24T08:27:13.036Z,66.38
2022-08-24T08:28:25.396Z,66.14
2022-08-24T08:29:14.063Z,66.14
2022-08-24T08:30:13.071Z,65.88
2022-08-24T08:31:13.052Z,65.75
2022-08-24T08:32:12.973Z,66.05
2022-08-24T08:33:13.008Z,65.35
2022-08-24T08:34:13.080Z,65.55
2022-08-24T08:35:12.931Z,65.55
2022-08-24T08:36:12.911Z,65.61
2022-08-24T08:37:12.944Z,65.72
2022-08-24T08:38:12.900Z,65.48
2022-08-24T08:39:12.886Z,64.92
2022-08-24T08:40:12.938Z,64.92
2022-08-24T08:41:12.859Z,64.49
2022-08-24T08:42:12.848Z,63.60
2022-08-24T08:43:13.167Z,63.49
2022-08-24T08:44:12.834Z,63.79
2022-08-24T08:45:12.815Z,63.67
2022-08-24T08:46:12.824Z,63.17
2022-08-24T08:47:12.773Z,63.17
2022-08-24T08:48:12.804Z,64.06
2022-08-24T08:49:12.768Z,64.16
2022-08-24T08:50:12.786Z,63.54
2022-08-24T08:51:13.474Z,63.64
2022-08-24T08:52:13.371Z,62.91
2022-08-24T08:53:12.771Z,63.40
2022-08-24T08:54:12.689Z,62.08
2022-08-24T08:55:12.698Z,61.39
2022-08-24T08:56:12.730Z,61.49
2022-08-24T08:57:12.660Z,61.36
2022-08-24T08:58:12.640Z,60.27
2022-08-24T08:59:12.903Z,60.57
2022-08-24T09:00:15.886Z,60.67
2022-08-24T09:01:12.802Z,60.96
2022-08-24T09:02:12.595Z,60.77
2022-08-24T09:03:12.575Z,60.67
2022-08-24T09:04:17.228Z,60.67
2022-08-24T09:05:13.540Z,60.37
2022-08-24T09:06:12.559Z,60.77
2022-08-24T09:07:12.556Z,60.27
2022-08-24T09:08:15.272Z,60.67
2022-08-24T09:09:12.485Z,60.05
2022-08-24T09:10:12.774Z,59.48
2022-08-24T09:11:12.732Z,60.37
2022-08-24T09:12:12.474Z,59.75
2022-08-24T09:13:12.446Z,59.25
2022-08-24T09:14:12.460Z,59.55
2022-08-24T09:15:12.482Z,59.42
2022-08-24T09:16:12.451Z,58.95
2022-08-24T09:17:13.234Z,59.22
2022-08-24T09:18:12.393Z,58.83
2022-08-24T09:19:12.351Z,58.83
2022-08-24T09:20:12.360Z,58.23
2022-08-24T09:21:12.401Z,58.92
2022-08-24T09:22:12.332Z,57.74
2022-08-24T09:23:12.294Z,57.90
2022-08-24T09:24:12.345Z,57.21
2022-08-24T09:25:12.294Z,57.68
2022-08-24T09:26:15.065Z,56.79
2022-08-24T09:27:13.262Z,57.41
2022-08-24T09:28:12.258Z,57.88
2022-08-24T09:29:12.322Z,56.57
2022-08-24T09:30:12.267Z,55.87
2022-08-24T09:31:12.289Z,55.18
2022-08-24T09:32:13.965Z,55.47
2022-08-24T09:33:12.188Z,56.30
2022-08-24T09:34:12.182Z,56.07
2022-08-24T09:35:26.184Z,56.37
2022-08-24T09:36:13.173Z,55.47
2022-08-24T09:37:12.173Z,56.27
2022-08-24T09:38:12.111Z,56.07
2022-08-24T09:39:12.102Z,55.55
2022-08-24T09:40:12.388Z,54.66
2022-08-24T09:41:12.098Z,54.59
2022-08-24T09:42:12.077Z,54.52
2022-08-24T09:43:12.054Z,54.39
2022-08-24T09:44:12.066Z,54.56
2022-08-24T09:45:12.011Z,53.38
2022-08-24T09:46:12.113Z,52.78
2022-08-24T09:47:12.036Z,53.47
2022-08-24T09:48:15.696Z,53.67
2022-08-24T09:49:14.217Z,53.11
2022-08-24T09:50:11.977Z,53.70
2022-08-24T09:51:11.955Z,53.99
2022-08-24T09:52:11.964Z,53.50
2022-08-24T09:53:11.926Z,54.17
2022-08-24T09:54:11.907Z,53.08
2022-08-24T09:55:11.895Z,52.88
2022-08-24T09:56:11.918Z,53.15
2022-08-24T09:57:13.267Z,52.17
2022-08-24T09:58:11.902Z,52.56
2022-08-24T09:59:11.842Z,52.44
2022-08-24T10:00:11.851Z,51.84
2022-08-24T10:01:11.945Z,51.45
2022-08-24T10:02:11.873Z,51.94
2022-08-24T10:03:11.792Z,51.94
2022-08-24T10:04:11.858Z,52.04
2022-08-24T10:05:11.849Z,51.94
2022-08-24T10:06:11.876Z,51.35
2022-08-24T10:07:11.778Z,52.44
2022-08-24T10:08:11.761Z,51.84
2022-08-24T10:09:11.734Z,50.93
2022-08-24T10:10:11.706Z,49.94
2022-08-24T10:11:11.797Z,50.63
2022-08-24T10:12:11.717Z,50.61
2022-08-24T10:13:11.658Z,48.83
2022-08-24T10:14:11.710Z,48.22
2022-08-24T10:15:11.626Z,48.81
2022-08-24T10:16:11.703Z,49.03
2022-08-24T10:17:11.653Z,50.04
2022-08-24T10:18:11.674Z,50.43
2022-08-24T10:19:11.584Z,50.14
2022-08-24T10:20:11.937Z,51.32
2022-08-24T10:21:11.605Z,50.24
2022-08-24T10:22:11.552Z,50.04
2022-08-24T10:23:11.575Z,49.52
2022-08-24T10:24:11.564Z,49.52
2022-08-24T10:25:11.528Z,49.01
2022-08-24T10:26:11.505Z,47.41
2022-08-24T10:27:11.484Z,47.01
2022-08-24T10:28:11.472Z,46.94
2022-08-24T10:29:11.466Z,48.24
2022-08-24T10:30:11.530Z,48.51
2022-08-24T10:31:13.158Z,48.61
2022-08-24T10:32:11.436Z,49.08
2022-08-24T10:33:11.501Z,48.98
2022-08-24T10:34:13.180Z,47.70
2022-08-24T10:35:11.381Z,47.82
2022-08-24T10:36:11.359Z,48.32
2022-08-24T10:37:11.357Z,48.88
2022-08-24T10:38:11.362Z,48.59
2022-08-24T10:39:11.336Z,48.37
2022-08-24T10:40:11.361Z,48.25
2022-08-24T10:41:11.304Z,47.95
2022-08-24T10:42:12.270Z,48.14
2022-08-24T10:43:11.298Z,48.27
2022-08-24T10:44:15.299Z,48.79
2022-08-24T10:45:11.289Z,48.49
2022-08-24T10:46:11.296Z,48.98
2022-08-24T10:47:11.297Z,49.48
2022-08-24T10:48:11.204Z,48.07
2022-08-24T10:49:11.219Z,48.35
2022-08-24T10:50:11.186Z,47.83
2022-08-24T10:51:11.262Z,48.13
2022-08-24T10:52:11.182Z,46.75
2022-08-24T10:53:11.198Z,46.35
2022-08-24T10:54:11.125Z,46.15
2022-08-24T10:55:11.121Z,46.75
2022-08-24T10:56:11.372Z,46.87
2022-08-24T10:57:15.013Z,47.56
2022-08-24T10:58:11.081Z,47.44
2022-08-24T10:59:11.093Z,46.97
2022-08-24T11:00:11.063Z,46.42
2022-08-24T11:01:11.110Z,46.91
2022-08-24T11:02:13.082Z,47.68
2022-08-24T11:03:11.015Z,47.75
2022-08-24T11:04:11.139Z,46.77
2022-08-24T11:05:11.023Z,46.97
2022-08-24T11:06:11.055Z,46.84
2022-08-24T11:07:11.181Z,46.45
2022-08-24T11:08:10.954Z,47.19
2022-08-24T11:09:10.936Z,46.67
2022-08-24T11:10:10.953Z,45.78
2022-08-24T11:11:10.907Z,47.26
2022-08-24T11:12:10.899Z,45.59
2022-08-24T11:13:11.130Z,45.29
2022-08-24T11:14:10.890Z,45.88
2022-08-24T11:15:10.863Z,45.47
2022-08-24T11:16:10.893Z,44.46
2022-08-24T11:17:10.843Z,45.13
2022-08-24T11:18:10.989Z,44.42
2022-08-24T11:19:10.813Z,43.83
2022-08-24T11:20:10.820Z,44.44
2022-08-24T11:21:10.889Z,43.55
2022-08-24T11:22:10.764Z,43.85
2022-08-24T11:23:10.790Z,44.02
2022-08-24T11:24:10.736Z,43.41
2022-08-24T11:25:10.761Z,43.12
2022-08-24T11:26:10.727Z,43.90
2022-08-24T11:27:10.707Z,43.73
2022-08-24T11:28:10.704Z,44.22
2022-08-24T11:29:10.733Z,43.73
2022-08-24T11:30:10.712Z,43.93
2022-08-24T11:31:10.796Z,44.52
2022-08-24T11:32:10.666Z,42.85
2022-08-24T11:33:10.657Z,43.26
2022-08-24T11:34:10.611Z,43.55
2022-08-24T11:35:10.593Z,44.93
2022-08-24T11:36:10.618Z,44.32
2022-08-24T11:37:10.688Z,43.46
2022-08-24T11:38:10.562Z,44.93
2022-08-24T11:39:10.540Z,44.71
2022-08-24T11:40:10.586Z,44.89
2022-08-24T11:41:10.828Z,45.28
2022-08-24T11:42:10.520Z,44.40
2022-08-24T11:43:10.846Z,43.90
2022-08-24T11:44:10.485Z,42.92
2022-08-24T11:45:10.497Z,43.90
2022-08-24T11:46:10.516Z,42.43
2022-08-24T11:47:10.475Z,43.02
2022-08-24T11:48:12.354Z,42.33
2022-08-24T11:49:10.430Z,42.53
2022-08-24T11:50:10.532Z,42.21
2022-08-24T11:51:10.423Z,42.71
2022-08-24T11:52:10.454Z,42.41
2022-08-24T11:53:12.253Z,42.51
2022-08-24T11:54:10.382Z,42.80
2022-08-24T11:55:10.388Z,41.90
2022-08-24T11:56:10.342Z,40.92
2022-08-24T11:57:10.359Z,40.72
2022-08-24T11:58:11.315Z,41.80
2022-08-24T11:59:10.316Z,43.00
2022-08-24T12:00:10.994Z,43.10
2022-08-24T12:01:10.286Z,42.32
2022-08-24T12:02:10.441Z,42.79
2022-08-24T12:03:10.444Z,41.98
2022-08-24T12:04:10.275Z,41.71
2022-08-24T12:05:10.254Z,41.61
2022-08-24T12:06:10.298Z,42.00
2022-08-24T12:07:10.268Z,42.19
2022-08-24T12:08:10.271Z,42.98
2022-08-24T12:09:10.204Z,42.47
2022-08-24T12:10:10.282Z,41.86
2022-08-24T12:11:10.157Z,40.78
2022-08-24T12:12:10.151Z,41.08
2022-08-24T12:13:10.171Z,40.88
2022-08-24T12:14:10.123Z,42.15
2022-08-24T12:15:10.224Z,42.10
2022-08-24T12:16:10.176Z,42.57
2022-08-24T12:17:10.126Z,41.66
2022-08-24T12:18:10.133Z,41.76
2022-08-24T12:19:10.130Z,42.35
2022-08-24T12:20:10.099Z,42.55
2022-08-24T12:21:12.761Z,41.84
2022-08-24T12:22:10.039Z,41.11
2022-08-24T12:23:10.031Z,39.74
2022-08-24T12:24:09.994Z,40.84
2022-08-24T12:25:09.977Z,40.06
2022-08-24T12:26:09.991Z,40.84
2022-08-24T12:27:09.960Z,41.02
2022-08-24T12:28:10.134Z,40.03
2022-08-24T12:29:09.932Z,39.84
2022-08-24T12:30:09.981Z,40.25
2022-08-24T12:31:10.087Z,41.03
2022-08-24T12:32:10.026Z,40.72
2022-08-24T12:33:09.939Z,39.14
2022-08-24T12:34:09.919Z,39.62
2022-08-24T12:35:09.913Z,40.01
2022-08-24T12:36:09.982Z,40.29
2022-08-24T12:37:15.973Z,39.10
2022-08-24T12:38:10.833Z,40.41
2022-08-24T12:39:09.810Z,39.41
2022-08-24T12:40:11.166Z,39.98
2022-08-24T12:41:17.865Z,39.08
2022-08-24T12:42:14.551Z,38.20
2022-08-24T12:43:10.777Z,40.25
2022-08-24T12:44:09.860Z,40.64
2022-08-24T12:45:09.805Z,41.02
2022-08-24T12:46:09.824Z,40.66
2022-08-24T12:47:09.728Z,39.28
2022-08-24T12:48:09.762Z,39.08
2022-08-24T12:49:09.696Z,38.77
2022-08-24T12:50:09.698Z,38.18
2022-08-24T12:51:09.728Z,38.20
2022-08-24T12:52:09.677Z,39.70